createdAt,value
2023-03-02T00:00:20.177Z,29.4
2023-03-02T00:05:20.195Z,29.3
2023-03-02T00:10:20.162Z,29.3
2023-03-02T00:15:20.094Z,29.3
2023-03-02T00:20:20.158Z,29.2
2023-03-02T00:25:20.257Z,29.2
2023-03-02T00:30:20.145Z,29.0
2023-03-02T00:35:20.210Z,29.0
2023-03-02T00:40:20.186Z,28.7
2023-03-02T00:45:17.099Z,28.6
2023-03-02T00:50:20.312Z,28.5
2023-03-02T00:55:20.272Z,28.5
2023-03-02T01:00:20.291Z,28.5
2023-03-02T01:05:20.253Z,28.6
2023-03-02T01:10:20.289Z,28.4
2023-03-02T01:15:20.249Z,28.8
2023-03-02T01:20:20.321Z,28.8
2023-03-02T01:25:20.277Z,29.0
2023-03-02T01:30:20.313Z,29.0
2023-03-02T01:35:17.201Z,29.3
2023-03-02T01:40:17.151Z,29.4
2023-03-02T01:45:20.410Z,29.5
2023-03-02T01:50:20.349Z,29.5
2023-03-02T01:55:20.393Z,29.5
2023-03-02T02:00:20.495Z,29.6
2023-03-02T02:05:20.421Z,29.6
2023-03-02T02:10:20.389Z,29.5
2023-03-02T02:15:20.442Z,29.4
2023-03-02T02:20:20.410Z,29.4
2023-03-02T02:25:20.460Z,29.4
2023-03-02T02:30:17.418Z,29.4
2023-03-02T02:35:17.330Z,29.4
2023-03-02T02:40:20.669Z,29.6
2023-03-02T02:45:20.460Z,29.4
2023-03-02T02:50:20.542Z,29.3
2023-03-02T02:55:20.685Z,29.3
2023-03-02T03:00:20.553Z,29.3
2023-03-02T03:05:20.585Z,29.4
2023-03-02T03:10:20.619Z,29.3
2023-03-02T03:15:20.548Z,29.6
2023-03-02T03:20:20.584Z,29.5
2023-03-02T03:25:17.452Z,29.6
2023-03-02T03:30:20.565Z,29.8
2023-03-02T03:35:18.683Z,29.7
2023-03-02T03:40:18.657Z,29.6
2023-03-02T03:45:18.591Z,29.7
2023-03-02T03:50:18.638Z,29.7
2023-03-02T03:55:18.723Z,29.7
2023-03-02T04:00:15.535Z,29.7
2023-03-02T04:05:15.583Z,29.7
2023-03-02T04:10:18.580Z,29.8
2023-03-02T04:15:18.635Z,29.8
2023-03-02T04:20:18.629Z,29.7
2023-03-02T04:25:18.735Z,29.8
2023-03-02T04:30:18.675Z,29.7
2023-03-02T04:35:18.772Z,29.9
2023-03-02T04:40:18.602Z,29.8
2023-03-02T04:45:18.737Z,29.7
2023-03-02T04:50:18.817Z,29.6
2023-03-02T04:55:15.692Z,29.9
2023-03-02T05:00:20.116Z,29.8
2023-03-02T05:05:20.034Z,29.8
2023-03-02T05:10:20.060Z,29.8
2023-03-02T05:15:20.001Z,29.8
2023-03-02T05:20:20.109Z,29.9
2023-03-02T05:25:16.974Z,30.0
2023-03-02T05:30:17.236Z,30.1
2023-03-02T05:35:20.227Z,29.9
2023-03-02T05:40:20.135Z,30.0
2023-03-02T05:45:20.135Z,29.9
2023-03-02T05:50:20.138Z,30.0
2023-03-02T05:55:20.183Z,30.0
2023-03-02T06:00:20.601Z,30.0
2023-03-02T06:05:20.199Z,29.9
2023-03-02T06:10:20.263Z,30.1
2023-03-02T06:15:17.095Z,30.1
2023-03-02T06:20:17.045Z,30.1
2023-03-02T06:25:20.362Z,30.1
2023-03-02T06:30:20.266Z,30.1
2023-03-02T06:35:20.326Z,30.1
2023-03-02T06:40:20.284Z,30.1
2023-03-02T06:45:20.759Z,30.1
2023-03-02T06:50:20.309Z,30.1
2023-03-02T06:55:20.276Z,30.1
2023-03-02T07:00:20.477Z,30.0
2023-03-02T07:05:20.279Z,30.3
2023-03-02T07:10:17.186Z,30.3
2023-03-02T07:15:17.224Z,30.3
2023-03-02T07:20:20.363Z,30.4
2023-03-02T07:25:20.320Z,30.6
2023-03-02T07:30:20.352Z,30.8
2023-03-02T07:35:20.403Z,30.8
2023-03-02T07:40:20.394Z,30.6
2023-03-02T07:45:20.433Z,30.7
2023-03-02T07:50:20.415Z,30.8
2023-03-02T07:55:20.360Z,30.9
2023-03-02T08:00:20.383Z,30.9
2023-03-02T08:05:17.344Z,30.9
2023-03-02T08:10:17.464Z,30.8
2023-03-02T08:15:17.593Z,30.8
2023-03-02T08:20:20.495Z,30.7
2023-03-02T08:25:20.440Z,30.8
2023-03-02T08:30:20.834Z,30.8
2023-03-02T08:35:20.603Z,30.7
2023-03-02T08:40:20.573Z,30.7
2023-03-02T08:45:20.539Z,30.7
2023-03-02T08:50:20.516Z,30.8
2023-03-02T08:55:17.558Z,31.0
2023-03-02T09:00:17.407Z,30.8
2023-03-02T09:05:20.766Z,30.8
2023-03-02T09:10:20.509Z,31.1
2023-03-02T09:15:18.538Z,31.2
2023-03-02T09:20:18.627Z,31.2
2023-03-02T09:25:18.611Z,30.8
2023-03-02T09:30:18.664Z,30.9
2023-03-02T09:35:15.526Z,30.8
2023-03-02T09:40:15.549Z,30.7
2023-03-02T09:45:18.658Z,30.7
2023-03-02T09:50:18.613Z,30.8
2023-03-02T09:55:18.724Z,31.1
2023-03-02T10:00:20.299Z,31.1
2023-03-02T10:05:18.663Z,31.0
2023-03-02T10:10:18.805Z,30.9
2023-03-02T10:15:18.718Z,30.8
2023-03-02T10:20:18.750Z,30.8
2023-03-02T10:25:19.225Z,31.1
2023-03-02T10:30:15.658Z,31.2
2023-03-02T10:35:15.720Z,31.3
2023-03-02T10:40:19.119Z,31.2
2023-03-02T10:45:18.874Z,31.2
2023-03-02T10:50:18.721Z,31.2
2023-03-02T10:55:18.826Z,31.1
2023-03-02T11:00:18.848Z,31.8
2023-03-02T11:05:18.821Z,32.1
2023-03-02T11:10:18.984Z,32.2
2023-03-02T11:15:18.837Z,32.4
2023-03-02T11:20:15.852Z,32.3
2023-03-02T11:25:16.054Z,32.4
2023-03-02T11:30:19.012Z,32.4
2023-03-02T11:35:20.604Z,32.5
2023-03-02T11:40:18.952Z,32.7
2023-03-02T11:45:18.888Z,33.1
2023-03-02T11:50:18.966Z,33.2
2023-03-02T11:55:18.958Z,32.9
2023-03-02T12:00:18.898Z,32.8
2023-03-02T12:05:19.012Z,32.8
2023-03-02T12:10:19.012Z,33.2
2023-03-02T12:15:15.861Z,33.3
2023-03-02T12:20:15.867Z,33.5
2023-03-02T12:25:19.159Z,33.6
2023-03-02T12:30:19.146Z,33.6
2023-03-02T12:35:19.138Z,33.6
2023-03-02T12:40:19.129Z,33.6
2023-03-02T12:45:19.000Z,33.7
2023-03-02T12:50:19.147Z,33.7
2023-03-02T12:55:19.032Z,33.7
2023-03-02T13:00:19.162Z,33.6
2023-03-02T13:05:19.081Z,33.7
2023-03-02T13:10:16.042Z,33.7
2023-03-02T13:15:16.190Z,33.7
2023-03-02T13:20:19.379Z,33.6
2023-03-02T13:25:19.129Z,33.7
2023-03-02T13:30:19.312Z,33.7
2023-03-02T13:35:19.226Z,33.8
2023-03-02T13:40:19.062Z,33.8
2023-03-02T13:45:19.265Z,33.9
2023-03-02T13:50:19.289Z,34.2
2023-03-02T13:55:19.251Z,34.4
2023-03-02T14:00:16.194Z,34.5
2023-03-02T14:05:16.191Z,34.4
2023-03-02T14:10:19.290Z,34.6
2023-03-02T14:15:19.300Z,34.6
2023-03-02T14:20:19.505Z,34.8
2023-03-02T14:25:19.275Z,34.9
2023-03-02T14:30:19.278Z,35.0
2023-03-02T14:35:19.406Z,34.9
2023-03-02T14:40:19.425Z,34.8
2023-03-02T14:45:19.336Z,34.7
2023-03-02T14:50:19.434Z,34.5
2023-03-02T14:55:16.282Z,34.5
2023-03-02T15:00:16.173Z,34.4
2023-03-02T15:05:19.439Z,34.3
2023-03-02T15:10:19.475Z,34.3
2023-03-02T15:15:19.487Z,34.3
2023-03-02T15:20:19.358Z,34.4
2023-03-02T15:25:19.399Z,34.5
2023-03-02T15:30:19.414Z,34.6
2023-03-02T15:35:19.434Z,34.6
2023-03-02T15:40:19.406Z,34.6
2023-03-02T15:45:19.421Z,34.7
2023-03-02T15:50:16.339Z,34.9
2023-03-02T15:55:19.512Z,34.9
2023-03-02T16:00:19.597Z,35.1
2023-03-02T16:05:19.535Z,35.2
2023-03-02T16:10:19.441Z,35.3
2023-03-02T16:15:19.566Z,35.2
2023-03-02T16:20:19.573Z,35.2
2023-03-02T16:25:19.569Z,35.3
2023-03-02T16:30:21.961Z,35.3
2023-03-02T16:35:19.633Z,35.2
2023-03-02T16:40:16.454Z,35.3
2023-03-02T16:45:16.432Z,35.3
2023-03-02T16:50:19.544Z,35.2
2023-03-02T16:55:19.575Z,35.3
2023-03-02T17:00:19.595Z,35.1
2023-03-02T17:05:19.642Z,35.0
2023-03-02T17:10:19.688Z,35.1
2023-03-02T17:15:19.672Z,35.2
2023-03-02T17:20:19.628Z,35.3
2023-03-02T17:25:19.872Z,35.3
2023-03-02T17:30:19.711Z,35.3
2023-03-02T17:35:16.550Z,35.4
2023-03-02T17:40:16.686Z,35.4
2023-03-02T17:45:19.715Z,35.2
2023-03-02T17:50:19.742Z,35.1
2023-03-02T17:55:19.698Z,35.1
2023-03-02T18:00:19.787Z,35.1
2023-03-02T18:05:19.805Z,35.1
2023-03-02T18:10:19.834Z,35.1
2023-03-02T18:15:20.006Z,35.2
2023-03-02T18:20:19.817Z,35.3
2023-03-02T18:25:16.689Z,35.3
2023-03-02T18:30:16.700Z,35.6
2023-03-02T18:35:17.059Z,35.7
2023-03-02T18:40:20.048Z,35.8
2023-03-02T18:45:19.799Z,35.8
2023-03-02T18:50:19.765Z,35.9
2023-03-02T18:55:19.775Z,35.8
2023-03-02T19:00:19.800Z,36.0
2023-03-02T19:05:20.042Z,35.9
2023-03-02T19:10:21.493Z,36.0
2023-03-02T19:15:19.948Z,36.0
2023-03-02T19:20:16.880Z,36.0
2023-03-02T19:25:16.814Z,36.1
2023-03-02T19:30:19.940Z,36.1
2023-03-02T19:35:20.009Z,36.1
2023-03-02T19:40:20.088Z,36.2
2023-03-02T19:45:19.945Z,36.4
2023-03-02T19:50:20.008Z,36.4
2023-03-02T19:55:20.129Z,36.3
2023-03-02T20:00:19.990Z,35.8
2023-03-02T20:05:20.096Z,36.2
2023-03-02T20:10:20.030Z,35.8
2023-03-02T20:15:17.090Z,35.6
2023-03-02T20:20:20.043Z,35.6
2023-03-02T20:25:20.017Z,35.6
2023-03-02T20:30:20.055Z,35.4
2023-03-02T20:35:20.109Z,35.4
2023-03-02T20:40:20.091Z,35.3
2023-03-02T20:45:20.035Z,35.5
2023-03-02T20:50:20.085Z,35.6
2023-03-02T20:55:20.232Z,35.6
2023-03-02T21:00:20.170Z,35.6
2023-03-02T21:05:17.065Z,35.6
2023-03-02T21:10:17.019Z,35.3
2023-03-02T21:15:20.118Z,35.3
2023-03-02T21:20:20.415Z,35.2
2023-03-02T21:25:20.207Z,35.1
2023-03-02T21:30:20.223Z,35.0
2023-03-02T21:35:20.155Z,35.5
2023-03-02T21:40:20.164Z,35.2
2023-03-02T21:45:20.209Z,35.2
2023-03-02T21:50:20.221Z,35.2
2023-03-02T21:55:20.392Z,35.2
2023-03-02T22:00:19.212Z,35.2
2023-03-02T22:05:19.306Z,35.1
2023-03-02T22:10:19.309Z,35.1
2023-03-02T22:15:19.368Z,35.4
2023-03-02T22:20:16.312Z,34.9
2023-03-02T22:25:16.208Z,35.0
2023-03-02T22:30:19.491Z,34.8
2023-03-02T22:35:19.361Z,34.7
2023-03-02T22:40:19.367Z,34.6
2023-03-02T22:45:19.580Z,34.8
2023-03-02T22:50:19.398Z,34.9
2023-03-02T22:55:19.450Z,34.7
2023-03-02T23:00:19.367Z,34.5
2023-03-02T23:05:19.504Z,34.4
2023-03-02T23:10:16.256Z,34.3
2023-03-02T23:15:16.330Z,34.2
2023-03-02T23:20:19.516Z,34.2
2023-03-02T23:25:19.564Z,33.8
2023-03-02T23:30:19.512Z,33.8
2023-03-02T23:35:19.625Z,34.8
2023-03-02T23:40:19.528Z,35.4
2023-03-02T23:45:19.525Z,35.8
2023-03-02T23:50:19.531Z,35.9
2023-03-02T23:55:19.540Z,36.2
